createdAt,value
2023-04-18T00:00:43.231Z,81.94
2023-04-18T00:03:10.042Z,81.88
2023-04-18T00:05:36.962Z,82.13
2023-04-18T00:08:03.900Z,82.12
2023-04-18T00:10:30.556Z,81.94
2023-04-18T00:12:58.373Z,82.33
2023-04-18T00:15:25.939Z,81.47
2023-04-18T00:17:56.712Z,80.93
2023-04-18T00:20:26.137Z,81.50
2023-04-18T00:22:53.331Z,81.92
2023-04-18T00:25:19.937Z,82.22
2023-04-18T00:27:48.416Z,81.71
2023-04-18T00:30:15.433Z,82.50
2023-04-18T00:32:42.241Z,82.72
2023-04-18T00:35:09.156Z,83.46
2023-04-18T00:37:35.817Z,83.51
2023-04-18T00:40:02.433Z,83.63
2023-04-18T00:42:31.010Z,84.22
2023-04-18T00:44:57.600Z,84.51
2023-04-18T00:47:25.527Z,84.63
2023-04-18T00:49:52.454Z,84.41
2023-04-18T00:52:19.673Z,83.89
2023-04-18T00:54:47.384Z,84.02
2023-04-18T00:57:14.245Z,84.26
2023-04-18T00:59:40.921Z,83.90
2023-04-18T01:02:07.537Z,84.79
2023-04-18T01:04:34.312Z,84.75
2023-04-18T01:07:02.820Z,85.06
2023-04-18T01:09:29.632Z,86.16
2023-04-18T01:11:56.436Z,85.43
2023-04-18T01:14:23.461Z,85.59
2023-04-18T01:16:50.090Z,84.81
2023-04-18T01:19:19.493Z,84.83
2023-04-18T01:21:46.195Z,84.77
2023-04-18T01:24:15.591Z,84.92
2023-04-18T01:26:44.208Z,84.81
2023-04-18T01:29:11.485Z,85.53
2023-04-18T01:31:39.600Z,86.09
2023-04-18T01:34:06.897Z,85.42
2023-04-18T01:36:36.072Z,86.14
2023-04-18T01:39:03.041Z,86.70
2023-04-18T01:41:32.857Z,86.73
2023-04-18T01:44:02.413Z,86.27
2023-04-18T01:46:29.593Z,86.87
2023-04-18T01:48:57.850Z,86.90
2023-04-18T01:51:25.902Z,88.04
2023-04-18T01:53:54.387Z,87.39
2023-04-18T01:56:21.301Z,87.83
2023-04-18T01:58:47.993Z,88.43
2023-04-18T02:01:14.978Z,87.99
2023-04-18T02:03:43.142Z,88.56
2023-04-18T02:06:10.193Z,88.05
2023-04-18T02:08:36.810Z,89.24
2023-04-18T02:11:05.606Z,88.76
2023-04-18T02:13:33.917Z,89.56
2023-04-18T02:16:02.222Z,90.37
2023-04-18T02:18:28.815Z,90.49
2023-04-18T02:20:56.619Z,91.17
2023-04-18T02:23:23.224Z,90.30
2023-04-18T02:25:50.874Z,91.08
2023-04-18T02:28:17.551Z,91.58
2023-04-18T02:30:44.256Z,92.93
2023-04-18T02:33:10.868Z,91.13
2023-04-18T02:35:39.956Z,91.77
2023-04-18T02:38:06.588Z,92.58
2023-04-18T02:40:33.224Z,91.52
2023-04-18T02:43:00.489Z,91.86
2023-04-18T02:45:28.209Z,91.86
2023-04-18T02:47:56.381Z,90.95
2023-04-18T02:50:24.307Z,91.57
2023-04-18T02:52:52.933Z,90.40
2023-04-18T02:55:19.686Z,91.15
2023-04-18T02:57:46.390Z,91.97
2023-04-18T03:00:13.864Z,91.23
2023-04-18T03:02:40.968Z,92.50
2023-04-18T03:05:07.988Z,92.64
2023-04-18T03:07:35.895Z,92.45
2023-04-18T03:10:02.663Z,92.79
2023-04-18T03:12:29.263Z,93.00
2023-04-18T03:14:55.899Z,93.84
2023-04-18T03:17:23.225Z,94.10
2023-04-18T03:19:49.911Z,93.82
2023-04-18T03:22:16.719Z,94.00
2023-04-18T03:24:43.385Z,94.92
2023-04-18T03:27:11.281Z,95.14
2023-04-18T03:29:40.904Z,96.64
2023-04-18T03:32:07.488Z,96.02
2023-04-18T03:34:34.048Z,95.74
2023-04-18T03:37:01.197Z,96.22
2023-04-18T03:39:27.924Z,95.18
2023-04-18T03:41:54.525Z,95.68
2023-04-18T03:44:21.220Z,95.39
2023-04-18T03:46:47.972Z,94.86
2023-04-18T03:49:14.517Z,94.57
2023-04-18T03:51:47.940Z,95.01
2023-04-18T03:54:17.327Z,95.56
2023-04-18T03:56:45.483Z,94.87
2023-04-18T03:59:14.087Z,94.81
2023-04-18T04:01:40.915Z,95.18
2023-04-18T04:04:09.431Z,95.17
2023-04-18T04:06:36.473Z,94.72
2023-04-18T04:09:03.187Z,94.91
2023-04-18T04:11:29.844Z,94.69
2023-04-18T04:13:56.566Z,95.26
2023-04-18T04:16:23.214Z,95.01
2023-04-18T04:18:49.865Z,96.25
2023-04-18T04:21:16.434Z,96.07
2023-04-18T04:23:43.061Z,96.38
2023-04-18T04:26:09.959Z,95.97
2023-04-18T04:28:36.589Z,97.99
2023-04-18T04:31:08.234Z,96.86
2023-04-18T04:33:35.784Z,97.94
2023-04-18T04:36:02.429Z,97.03
2023-04-18T04:38:31.015Z,97.58
2023-04-18T04:40:58.287Z,96.79
2023-04-18T04:43:25.579Z,98.21
2023-04-18T04:45:53.543Z,96.61
2023-04-18T04:48:22.288Z,97.70
2023-04-18T04:50:53.743Z,97.88
2023-04-18T04:53:20.464Z,97.01
2023-04-18T04:55:47.192Z,97.96
2023-04-18T04:58:13.964Z,98.00
2023-04-18T05:00:40.613Z,97.63
2023-04-18T05:03:08.468Z,98.20
2023-04-18T05:05:35.353Z,97.69
2023-04-18T05:08:02.352Z,98.52
2023-04-18T05:10:29.145Z,98.23
2023-04-18T05:12:56.927Z,98.40
2023-04-18T05:15:27.168Z,97.96
2023-04-18T05:17:53.976Z,97.72
2023-04-18T05:20:20.661Z,97.66
2023-04-18T05:22:47.287Z,98.03
2023-04-18T05:25:13.904Z,98.59
2023-04-18T05:27:41.449Z,96.88
2023-04-18T05:30:08.635Z,97.74
2023-04-18T05:32:36.090Z,98.51
2023-04-18T05:35:06.896Z,98.58
2023-04-18T05:37:36.515Z,98.83
2023-04-18T05:40:05.059Z,98.51
2023-04-18T05:42:31.676Z,98.12
2023-04-18T05:44:58.289Z,98.11
2023-04-18T05:47:28.371Z,98.02
2023-04-18T05:49:55.496Z,98.52
2023-04-18T05:52:22.191Z,98.46
2023-04-18T05:54:50.654Z,98.90
2023-04-18T05:57:17.272Z,98.60
2023-04-18T05:59:43.853Z,98.19
2023-04-18T06:02:13.822Z,97.05
2023-04-18T06:04:42.149Z,97.38
2023-04-18T06:07:11.313Z,96.19
2023-04-18T06:09:39.283Z,97.05
2023-04-18T06:12:06.218Z,96.13
2023-04-18T06:14:32.771Z,95.89
2023-04-18T06:16:59.620Z,97.27
2023-04-18T06:19:26.219Z,96.39
2023-04-18T06:21:53.198Z,94.35
2023-04-18T06:24:21.833Z,95.22
2023-04-18T06:26:50.060Z,98.46
2023-04-18T06:29:18.242Z,98.37
2023-04-18T06:31:48.360Z,89.42
2023-04-18T06:34:15.620Z,91.82
2023-04-18T06:36:44.212Z,89.02
2023-04-18T06:39:10.800Z,86.49
2023-04-18T06:41:37.443Z,87.36
2023-04-18T06:44:04.802Z,83.67
2023-04-18T06:46:34.031Z,82.39
2023-04-18T06:49:00.869Z,85.26
2023-04-18T06:51:27.653Z,84.76
2023-04-18T06:53:54.383Z,82.79
2023-04-18T06:56:21.223Z,83.92
2023-04-18T06:58:48.238Z,83.80
2023-04-18T07:01:14.886Z,83.30
2023-04-18T07:03:41.739Z,82.59
2023-04-18T07:06:11.869Z,82.92
2023-04-18T07:08:38.619Z,82.65
2023-04-18T07:11:06.418Z,82.97
2023-04-18T07:13:33.285Z,82.33
2023-04-18T07:16:01.917Z,82.30
2023-04-18T07:18:37.457Z,82.62
2023-04-18T07:21:08.317Z,84.10
2023-04-18T07:23:35.468Z,83.69
2023-04-18T07:26:05.777Z,82.17
2023-04-18T07:28:33.306Z,83.05
2023-04-18T07:31:03.002Z,82.11
2023-04-18T07:33:33.976Z,80.23
2023-04-18T07:36:03.663Z,81.42
2023-04-18T07:38:30.704Z,80.52
2023-04-18T07:40:58.749Z,80.82
2023-04-18T07:43:25.967Z,82.51
2023-04-18T07:45:53.180Z,82.12
2023-04-18T07:48:25.133Z,81.60
2023-04-18T07:50:51.741Z,81.90
2023-04-18T07:53:18.378Z,84.24
2023-04-18T07:55:45.742Z,83.65
2023-04-18T07:58:12.895Z,82.67
2023-04-18T08:00:42.028Z,83.20
2023-04-18T08:03:12.639Z,79.34
2023-04-18T08:05:40.233Z,78.98
2023-04-18T08:08:07.869Z,78.22
2023-04-18T08:10:36.614Z,76.67
2023-04-18T08:13:06.793Z,77.39
2023-04-18T08:15:33.454Z,77.88
2023-04-18T08:18:01.143Z,78.45
2023-04-18T08:20:28.471Z,77.25
2023-04-18T08:23:06.814Z,76.22
2023-04-18T08:25:38.103Z,76.19
2023-04-18T08:28:05.183Z,76.46
2023-04-18T08:30:35.418Z,76.49
2023-04-18T08:33:02.204Z,75.83
2023-04-18T08:35:29.056Z,79.08
2023-04-18T08:37:55.770Z,77.03
2023-04-18T08:40:22.509Z,76.54
2023-04-18T08:42:50.228Z,77.24
2023-04-18T08:45:18.701Z,74.72
2023-04-18T08:47:45.702Z,73.79
2023-04-18T08:50:14.042Z,68.90
2023-04-18T08:52:45.969Z,68.02
2023-04-18T08:55:12.558Z,65.85
2023-04-18T08:57:39.909Z,68.60
2023-04-18T09:00:10.731Z,64.37
2023-04-18T09:02:43.282Z,64.30
2023-04-18T09:05:19.886Z,62.67
2023-04-18T09:07:48.110Z,60.81
2023-04-18T09:10:29.026Z,61.57
2023-04-18T09:12:57.596Z,59.19
2023-04-18T09:15:27.392Z,61.00
2023-04-18T09:17:59.463Z,63.89
2023-04-18T09:20:35.160Z,64.39
2023-04-18T09:23:10.971Z,66.57
2023-04-18T09:25:48.997Z,66.44
2023-04-18T09:28:30.682Z,67.89
2023-04-18T09:31:00.939Z,68.64
2023-04-18T09:33:32.685Z,69.04
2023-04-18T09:36:28.985Z,70.29
2023-04-18T09:38:56.891Z,71.38
2023-04-18T09:41:24.407Z,70.88
2023-04-18T09:44:11.496Z,73.07
2023-04-18T09:46:40.409Z,72.26
2023-04-18T09:49:09.588Z,71.97
2023-04-18T09:51:40.501Z,71.53
2023-04-18T09:54:10.901Z,73.77
2023-04-18T09:56:42.865Z,72.77
2023-04-18T09:59:14.144Z,74.86
2023-04-18T10:01:48.151Z,73.21
2023-04-18T10:04:19.242Z,73.18
2023-04-18T10:06:46.096Z,75.54
2023-04-18T10:09:16.192Z,74.46
2023-04-18T10:11:44.385Z,75.00
2023-04-18T10:14:16.220Z,75.81
2023-04-18T10:16:45.542Z,75.55
2023-04-18T10:19:27.454Z,75.85
2023-04-18T10:21:57.374Z,75.51
2023-04-18T10:25:05.013Z,75.67
2023-04-18T10:27:59.141Z,75.43
2023-04-18T10:30:41.064Z,75.71
2023-04-18T10:33:31.178Z,74.98
2023-04-18T10:36:14.348Z,76.24
2023-04-18T10:38:49.616Z,75.59
2023-04-18T10:41:24.379Z,75.40
2023-04-18T10:44:15.753Z,76.85
2023-04-18T10:47:10.337Z,76.13
2023-04-18T10:49:37.231Z,76.52
2023-04-18T10:52:06.111Z,77.25
2023-04-18T10:54:48.254Z,77.48
2023-04-18T10:57:15.482Z,78.07
2023-04-18T10:59:52.132Z,76.54
2023-04-18T11:02:32.445Z,76.53
2023-04-18T11:05:01.328Z,73.39
2023-04-18T11:07:42.063Z,71.91
2023-04-18T11:10:12.014Z,71.60
2023-04-18T11:12:41.135Z,73.14
2023-04-18T11:15:30.888Z,73.28
2023-04-18T11:18:03.808Z,73.83
2023-04-18T11:20:38.720Z,72.82
2023-04-18T11:23:16.373Z,76.29
2023-04-18T11:25:46.926Z,72.29
2023-04-18T11:28:19.067Z,73.67
2023-04-18T11:30:46.121Z,72.32
2023-04-18T11:33:14.182Z,73.69
2023-04-18T11:35:45.792Z,72.69
2023-04-18T11:38:16.274Z,71.81
2023-04-18T11:40:51.391Z,71.45
2023-04-18T11:43:25.142Z,70.55
2023-04-18T11:45:57.098Z,70.09
2023-04-18T11:48:37.589Z,71.09
2023-04-18T11:51:06.852Z,68.13
2023-04-18T11:53:38.277Z,69.72
2023-04-18T11:56:05.675Z,66.86
2023-04-18T11:58:34.995Z,64.74
2023-04-18T12:01:22.647Z,67.19
2023-04-18T12:04:09.083Z,66.33
2023-04-18T12:06:49.147Z,69.06
2023-04-18T12:09:17.459Z,63.99
2023-04-18T12:11:45.068Z,64.30
2023-04-18T12:14:24.329Z,61.99
2023-04-18T12:16:53.410Z,60.14
2023-04-18T12:19:32.727Z,63.24
2023-04-18T12:22:01.429Z,61.18
2023-04-18T12:24:32.373Z,61.73
2023-04-18T12:27:01.030Z,58.23
2023-04-18T12:29:30.438Z,61.10
2023-04-18T12:31:59.186Z,61.11
2023-04-18T12:34:27.514Z,61.77
2023-04-18T12:36:55.014Z,63.53
2023-04-18T12:39:24.095Z,63.74
2023-04-18T12:41:51.560Z,65.63
2023-04-18T12:44:18.453Z,63.17
2023-04-18T12:46:45.280Z,63.96
2023-04-18T12:49:12.138Z,63.70
2023-04-18T12:51:40.096Z,65.28
2023-04-18T12:54:07.171Z,64.34
2023-04-18T12:56:34.003Z,65.19
2023-04-18T12:59:02.334Z,64.24
2023-04-18T13:01:29.629Z,64.19
2023-04-18T13:04:10.835Z,63.08
2023-04-18T13:06:39.376Z,63.93
2023-04-18T13:09:08.046Z,59.33
2023-04-18T13:11:34.975Z,61.07
2023-04-18T13:14:01.633Z,61.29
2023-04-18T13:16:28.485Z,60.28
2023-04-18T13:18:57.033Z,62.60
2023-04-18T13:21:26.386Z,64.04
2023-04-18T13:23:57.959Z,65.68
2023-04-18T13:26:26.524Z,65.80
2023-04-18T13:29:02.117Z,66.88
2023-04-18T13:31:31.838Z,68.28
2023-04-18T13:33:59.995Z,66.82
2023-04-18T13:36:28.012Z,69.56
2023-04-18T13:38:55.878Z,69.33
2023-04-18T13:41:24.018Z,68.40
2023-04-18T13:43:52.689Z,67.75
2023-04-18T13:46:20.215Z,69.70
2023-04-18T13:48:47.439Z,68.52
2023-04-18T13:51:14.901Z,70.41
2023-04-18T13:53:51.055Z,68.47
2023-04-18T13:56:18.323Z,69.28
2023-04-18T13:58:44.941Z,70.22
2023-04-18T14:01:13.997Z,71.45
2023-04-18T14:03:43.573Z,70.45
2023-04-18T14:06:12.932Z,70.49
2023-04-18T14:08:40.915Z,70.85
2023-04-18T14:11:07.671Z,71.05
2023-04-18T14:13:34.322Z,71.73
2023-04-18T14:16:01.008Z,69.82
2023-04-18T14:18:28.610Z,70.67
2023-04-18T14:20:55.257Z,70.67
2023-04-18T14:23:22.714Z,72.46
2023-04-18T14:25:49.412Z,72.11
2023-04-18T14:28:20.864Z,71.25
2023-04-18T14:30:47.540Z,72.16
2023-04-18T14:33:14.254Z,72.24
2023-04-18T14:35:40.911Z,71.46
2023-04-18T14:38:07.568Z,72.35
2023-04-18T14:40:34.484Z,72.20
2023-04-18T14:43:01.224Z,71.33
2023-04-18T14:45:28.172Z,69.19
2023-04-18T14:47:55.857Z,70.01
2023-04-18T14:50:23.268Z,69.66
2023-04-18T14:52:50.165Z,69.75
2023-04-18T14:55:17.227Z,70.89
2023-04-18T14:57:44.173Z,69.64
2023-04-18T15:00:12.635Z,70.67
2023-04-18T15:02:39.951Z,70.15
2023-04-18T15:05:11.329Z,70.00
2023-04-18T15:07:38.036Z,70.29
2023-04-18T15:10:05.577Z,69.18
2023-04-18T15:12:32.814Z,69.15
2023-04-18T15:15:00.564Z,70.08
2023-04-18T15:17:27.788Z,70.17
2023-04-18T15:19:55.051Z,69.22
2023-04-18T15:22:22.866Z,68.53
2023-04-18T18:12:59.857Z,73.40
2023-04-18T18:15:26.533Z,73.40
2023-04-18T18:17:53.232Z,73.59
2023-04-18T18:20:20.004Z,74.17
2023-04-18T18:22:49.548Z,74.91
2023-04-18T18:25:16.419Z,74.47
2023-04-18T18:27:43.023Z,74.98
2023-04-18T18:30:09.863Z,75.63
2023-04-18T18:32:37.309Z,75.46
2023-04-18T18:35:06.003Z,76.35
2023-04-18T18:37:33.384Z,76.89
2023-04-18T18:40:00.061Z,77.58
2023-04-18T18:42:26.830Z,77.93
2023-04-18T18:44:53.622Z,78.73
2023-04-18T18:47:20.336Z,79.38
2023-04-18T18:49:48.815Z,79.63
2023-04-18T18:52:16.078Z,79.55
2023-04-18T18:54:42.690Z,80.37
2023-04-18T18:57:09.462Z,80.60
2023-04-18T18:59:36.110Z,81.63
2023-04-18T19:02:02.882Z,82.07
2023-04-18T19:04:29.624Z,82.38
2023-04-18T19:06:56.378Z,83.35
2023-04-18T19:09:22.982Z,83.06
2023-04-18T19:11:49.776Z,83.55
2023-04-18T19:14:16.533Z,83.31
2023-04-18T19:16:43.189Z,84.59
2023-04-18T19:19:10.291Z,84.74
2023-04-18T19:21:37.249Z,85.56
2023-04-18T19:24:04.063Z,85.26
2023-04-18T19:26:30.704Z,86.39
2023-04-18T19:28:57.356Z,86.35
2023-04-18T19:31:24.011Z,86.63
2023-04-18T19:33:50.725Z,86.62
2023-04-18T19:36:18.571Z,87.20
2023-04-18T19:38:46.432Z,87.81
2023-04-18T19:41:13.092Z,87.74
2023-04-18T19:43:42.605Z,87.30
2023-04-18T19:46:09.321Z,88.01
2023-04-18T19:48:36.103Z,87.84
2023-04-18T19:51:04.837Z,88.44
2023-04-18T19:53:31.559Z,88.68
2023-04-18T19:55:58.098Z,89.51
2023-04-18T19:58:44.785Z,89.41
2023-04-18T20:01:12.846Z,89.70
2023-04-18T20:03:40.012Z,89.30
2023-04-18T20:06:07.322Z,89.08
2023-04-18T20:08:36.683Z,89.53
2023-04-18T20:11:17.214Z,88.80
2023-04-18T20:13:45.607Z,89.09
2023-04-18T20:16:12.385Z,89.78
2023-04-18T20:18:41.712Z,89.75
2023-04-18T20:21:11.092Z,90.01
2023-04-18T20:23:39.447Z,89.69
2023-04-18T20:26:06.737Z,90.39
2023-04-18T20:28:33.362Z,89.94
2023-04-18T20:31:00.117Z,89.89
2023-04-18T20:33:26.862Z,90.36
2023-04-18T20:35:56.168Z,90.68
2023-04-18T20:38:25.962Z,90.97
2023-04-18T20:40:53.350Z,91.39
2023-04-18T20:43:20.144Z,91.58
2023-04-18T20:45:51.314Z,91.81
2023-04-18T20:48:19.822Z,92.33
2023-04-18T20:50:52.179Z,91.96
2023-04-18T20:53:27.086Z,91.57
2023-04-18T20:55:53.795Z,92.37
2023-04-18T20:58:20.666Z,92.56
2023-04-18T21:00:48.367Z,92.54
2023-04-18T21:03:17.874Z,92.54
2023-04-18T21:05:45.172Z,93.49
2023-04-18T21:08:12.281Z,93.58
2023-04-18T21:10:39.646Z,92.74
2023-04-18T21:13:06.468Z,93.74
2023-04-18T21:15:36.168Z,93.94
2023-04-18T21:18:04.599Z,94.22
2023-04-18T21:20:31.227Z,94.36
2023-04-18T21:22:57.835Z,94.41
2023-04-18T21:25:24.423Z,94.21
2023-04-18T21:27:51.046Z,94.89
2023-04-18T21:30:17.908Z,94.31
2023-04-18T21:32:45.865Z,94.63
2023-04-18T21:35:12.888Z,95.13
2023-04-18T21:37:39.723Z,95.89
2023-04-18T21:40:08.034Z,95.56
2023-04-18T21:42:35.621Z,94.76
2023-04-18T21:45:02.537Z,95.83
2023-04-18T21:47:31.843Z,95.53
2023-04-18T21:49:58.998Z,95.48
2023-04-18T21:52:25.601Z,96.66
2023-04-18T21:54:52.256Z,97.61
2023-04-18T21:57:18.823Z,97.53
2023-04-18T21:59:45.425Z,97.84
2023-04-18T22:02:12.501Z,97.96
2023-04-18T22:04:42.815Z,96.74
2023-04-18T22:07:09.999Z,96.42
2023-04-18T22:09:37.283Z,97.23
2023-04-18T22:12:04.504Z,99.20
2023-04-18T22:14:35.985Z,99.53
2023-04-18T22:17:04.927Z,100.00
2023-04-18T22:19:32.421Z,100.00
2023-04-18T22:21:59.145Z,100.00
2023-04-18T22:24:26.065Z,100.00
2023-04-18T22:26:53.166Z,100.00
2023-04-18T22:29:19.803Z,100.00
2023-04-18T22:31:46.331Z,100.00
2023-04-18T22:34:13.109Z,100.00
2023-04-18T22:36:39.735Z,99.87
2023-04-18T22:39:06.277Z,100.00
2023-04-18T22:41:32.848Z,100.00
2023-04-18T22:43:59.391Z,100.00
2023-04-18T22:46:28.942Z,100.00
2023-04-18T22:48:57.268Z,99.93
2023-04-18T22:51:25.244Z,100.00
2023-04-18T22:53:51.760Z,100.00
2023-04-18T22:56:18.301Z,100.00
2023-04-18T22:58:44.903Z,100.00
2023-04-18T23:01:11.510Z,100.00
2023-04-18T23:03:38.438Z,100.00
2023-04-18T23:06:07.609Z,100.00
2023-04-18T23:08:35.305Z,100.00
2023-04-18T23:11:03.812Z,100.00
2023-04-18T23:13:32.332Z,100.00
2023-04-18T23:15:58.964Z,100.00
2023-04-18T23:18:26.021Z,100.00
2023-04-18T23:20:52.649Z,100.00
2023-04-18T23:23:19.200Z,100.00
2023-04-18T23:25:45.906Z,100.00
2023-04-18T23:28:13.683Z,100.00
2023-04-18T23:30:40.361Z,100.00
2023-04-18T23:33:06.984Z,100.00
2023-04-18T23:35:33.713Z,100.00
2023-04-18T23:38:00.347Z,100.00
2023-04-18T23:40:26.969Z,100.00
2023-04-18T23:42:53.574Z,100.00
2023-04-18T23:45:20.245Z,100.00
2023-04-18T23:47:46.925Z,100.00
2023-04-18T23:50:13.539Z,100.00
2023-04-18T23:52:40.580Z,100.00
2023-04-18T23:55:09.023Z,100.00
2023-04-18T23:57:36.401Z,100.00
